| time (UTC) | temp F | wind direction | speed knots | gust knots | rain 1hr in | rain 24hr in | rain mn in | humidity % | barometer mb |
| 20260507012121 | 69 | 344 | 6.1 | 12.2 | 0.00 | 0.01 | 0.01 | 74 | 1011.8 |
| 20260507011622 | 69 | 10 | 4.3 | 8.7 | 0.00 | 0.01 | 0.01 | 74 | 1011.7 |
| 20260507011124 | 70 | 46 | 4.3 | 8.7 | 0.00 | 0.01 | 0.01 | 74 | 1011.5 |
| 20260507011120 | 70 | 32 | 5.2 | 9.6 | 0.00 | 0.01 | 0.01 | 74 | 1011.7 |
| 20260507010119 | 70 | 24 | 5.2 | 13.9 | 0.00 | 0.01 | 0.01 | 73 | 1011.6 |
| 20260507005619 | 71 | 341 | 5.2 | 13.9 | 0.00 | 0.01 | 0.01 | 72 | 1011.7 |
| 20260507005120 | 71 | 318 | 5.2 | 10.4 | 0.00 | 0.01 | 0.01 | 72 | 1011.5 |
| 20260507004623 | 72 | 28 | 5.2 | 13.9 | 0.00 | 0.01 | 0.01 | 71 | 1011.1 |
| 20260507004619 | 71 | 34 | 5.2 | 11.3 | 0.00 | 0.01 | 0.01 | 72 | 1011.2 |
| 20260507003619 | 72 | 17 | 5.2 | 13.9 | 0.00 | 0.01 | 0.01 | 71 | 1011.2 |
| 20260507003120 | 73 | 327 | 5.2 | 13.0 | 0.00 | 0.01 | 0.01 | 71 | 1011.1 |
| 20260507002619 | 73 | 338 | 5.2 | 12.2 | 0.00 | 0.01 | 0.01 | 70 | 1011.1 |
| 20260507002119 | 74 | 18 | 5.2 | 12.2 | 0.00 | 0.01 | 0.01 | 70 | 1010.9 |
| 20260507001620 | 74 | 23 | 6.1 | 12.2 | 0.00 | 0.01 | 0.01 | 70 | 1011.0 |
| 20260507001119 | 74 | 350 | 6.1 | 13.0 | 0.00 | 0.01 | 0.01 | 70 | 1011.0 |
| 20260507000624 | 75 | 343 | 6.1 | 13.9 | 0.00 | 0.01 | 0.01 | 69 | 1010.8 |
| 20260507000620 | 74 | 11 | 6.1 | 13.0 | 0.00 | 0.01 | 0.01 | 69 | 1011.1 |
| 20260507000223 | 75 | 286 | 6.1 | 13.9 | 0.00 | 0.01 | 0.01 | 68 | 1010.8 |
| 20260506235724 | 76 | 340 | 6.1 | 11.3 | 0.00 | 0.01 | 0.01 | 68 | 1010.6 |
| 20260506234620 | 76 | 303 | 6.1 | 17.4 | 0.00 | 0.01 | 0.01 | 68 | 1010.4 |
| 20260506234119 | 76 | 334 | 6.1 | 17.4 | 0.00 | 0.01 | 0.01 | 67 | 1010.3 |
| 20260506233619 | 77 | 336 | 6.1 | 13.0 | 0.00 | 0.01 | 0.01 | 66 | 1010.4 |
| 20260506233124 | 78 | 355 | 7.0 | 13.0 | 0.00 | 0.01 | 0.01 | 64 | 1010.2 |
| 20260506233120 | 77 | 345 | 7.0 | 13.0 | 0.00 | 0.01 | 0.01 | 66 | 1010.4 |
| 20260506232119 | 79 | 323 | 7.0 | 13.0 | 0.00 | 0.01 | 0.01 | 63 | 1010.1 |
| 20260506231620 | 80 | 30 | 6.1 | 13.0 | 0.00 | 0.01 | 0.01 | 65 | 1009.9 |
| 20260506231119 | 81 | 24 | 6.1 | 12.2 | 0.00 | 0.01 | 0.01 | 66 | 1009.8 |
| 20260506230619 | 82 | 45 | 6.1 | 11.3 | 0.00 | 0.01 | 0.01 | 66 | 1009.8 |
| 20260506230120 | 82 | 51 | 7.0 | 12.2 | 0.00 | 0.01 | 0.01 | 66 | 1009.7 |
| 20260506225620 | 82 | 47 | 6.1 | 13.0 | 0.00 | 0.01 | 0.01 | 66 | 1009.6 |
| 20260506225119 | 82 | 55 | 5.2 | 13.0 | 0.00 | 0.01 | 0.01 | 66 | 1009.6 |
| 20260506224620 | 82 | 34 | 4.3 | 13.9 | 0.00 | 0.01 | 0.01 | 67 | 1009.6 |
| 20260506224119 | 82 | 78 | 5.2 | 13.9 | 0.00 | 0.01 | 0.01 | 67 | 1009.7 |
| 20260506223620 | 82 | 32 | 6.1 | 12.2 | 0.00 | 0.01 | 0.01 | 67 | 1009.6 |
| 20260506223119 | 83 | 13 | 5.2 | 12.2 | 0.00 | 0.01 | 0.01 | 66 | 1009.4 |
| 20260506222624 | 83 | 313 | 5.2 | 12.2 | 0.00 | 0.01 | 0.01 | 66 | 1009.4 |
| 20260506222620 | 83 | 72 | 5.2 | 11.3 | 0.00 | 0.01 | 0.01 | 66 | 1009.4 |
| 20260506221619 | 83 | 13 | 6.1 | 12.2 | 0.00 | 0.01 | 0.01 | 66 | 1009.5 |
| 20260506221118 | 83 | 18 | 7.0 | 12.2 | 0.00 | 0.01 | 0.01 | 66 | 1009.3 |
| 20260506220617 | 83 | 40 | 6.1 | 12.2 | 0.00 | 0.01 | 0.01 | 66 | 1009.4 |
| 20260506220118 | 84 | 33 | 5.2 | 13.0 | 0.00 | 0.01 | 0.01 | 65 | 1009.3 |
| 20260506215618 | 84 | 11 | 6.1 | 13.0 | 0.00 | 0.01 | 0.01 | 64 | 1009.2 |
| 20260506215117 | 85 | 350 | 5.2 | 13.9 | 0.00 | 0.01 | 0.01 | 62 | 1009.1 |
| 20260506214618 | 88 | 333 | 2.6 | 13.9 | 0.00 | 0.01 | 0.01 | 58 | 1009.1 |
| 20260506214115 | 89 | 78 | 0.9 | 5.2 | 0.00 | 0.01 | 0.01 | 58 | 1009.0 |
| 20260506213618 | 89 | 313 | 1.7 | 5.2 | 0.00 | 0.01 | 0.01 | 59 | 1009.0 |
| 20260506213614 | 89 | 11 | 1.7 | 5.2 | 0.00 | 0.01 | 0.01 | 58 | 1009.1 |
| 20260506212613 | 89 | 119 | 1.7 | 5.2 | 0.00 | 0.01 | 0.01 | 58 | 1009.2 |
| 20260506212114 | 89 | 167 | 1.7 | 5.2 | 0.00 | 0.01 | 0.01 | 58 | 1009.2 |
| 20260506211612 | 89 | 165 | 0.9 | 4.3 | 0.00 | 0.01 | 0.01 | 58 | 1009.1 |
| 20260506211112 | 89 | 32 | 0.9 | 4.3 | 0.00 | 0.01 | 0.01 | 57 | 1009.3 |
| 20260506210615 | 89 | 55 | 0.9 | 3.5 | 0.00 | 0.01 | 0.01 | 58 | 1009.3 |
| 20260506210611 | 89 | 40 | 0.9 | 3.5 | 0.00 | 0.01 | 0.01 | 56 | 1009.4 |
| 20260506205803 | 89 | 101 | 1.7 | 6.1 | 0.00 | 0.01 | 0.01 | 58 | 1009.4 |
| 20260506205610 | 90 | 52 | 1.7 | 6.1 | 0.00 | 0.01 | 0.01 | 58 | 1009.4 |
| 20260506205406 | 91 | 121 | 1.7 | 6.1 | 0.00 | 0.01 | 0.01 | 57 | 1009.5 |
| 20260506205257 | 89 | 55 | 0.9 | 5.2 | 0.00 | 0.01 | 0.01 | 59 | 1009.5 |
| 20260506205253 | 90 | 57 | 0.9 | 5.2 | 0.00 | 0.01 | 0.01 | 57 | 1009.6 |
| 20260506203605 | 91 | 121 | 1.7 | 6.1 | 0.00 | 0.01 | 0.01 | 57 | 1009.5 |
| 20260506203106 | 91 | 102 | 1.7 | 6.1 | 0.00 | 0.01 | 0.01 | 58 | 1009.6 |
| 20260506202604 | 91 | 143 | 0.9 | 4.3 | 0.00 | 0.01 | 0.01 | 57 | 1009.6 |
| 20260506202103 | 91 | 138 | 0.9 | 4.3 | 0.00 | 0.01 | 0.01 | 57 | 1009.6 |
| 20260506201604 | 90 | 142 | 0.9 | 4.3 | 0.00 | 0.01 | 0.01 | 60 | 1009.7 |
| 20260506201103 | 89 | 129 | 0.9 | 3.5 | 0.00 | 0.01 | 0.01 | 62 | 1009.8 |
| 20260506200602 | 87 | 142 | 0.9 | 3.5 | 0.00 | 0.01 | 0.01 | 64 | 1009.9 |
| 20260506195604 | 87 | 74 | 1.7 | 5.2 | 0.00 | 0.01 | 0.01 | 63 | 1010.1 |
| 20260506195600 | 87 | 74 | 0.9 | 4.3 | 0.00 | 0.01 | 0.01 | 62 | 1010.0 |
| 20260506194558 | 88 | 9 | 1.7 | 5.2 | 0.00 | 0.01 | 0.01 | 63 | 1010.2 |
| 20260506194102 | 88 | 214 | 0.9 | 3.5 | 0.00 | 0.01 | 0.01 | 63 | 1010.1 |
| 20260506194058 | 88 | 119 | 0.9 | 5.2 | 0.00 | 0.01 | 0.01 | 63 | 1010.1 |
| 20260506193058 | 87 | 169 | 0.9 | 4.3 | 0.00 | 0.01 | 0.01 | 66 | 1010.1 |
| 20260506192555 | 87 | 163 | 1.7 | 4.3 | 0.00 | 0.01 | 0.01 | 64 | 1010.2 |
| 20260506192054 | 87 | 105 | 1.7 | 7.0 | 0.00 | 0.01 | 0.01 | 64 | 1010.3 |
| 20260506191554 | 87 | 92 | 1.7 | 7.0 | 0.00 | 0.01 | 0.01 | 65 | 1010.3 |
| 20260506191057 | 87 | 103 | 1.7 | 6.1 | 0.00 | 0.01 | 0.01 | 66 | 1010.3 |
| 20260506191053 | 87 | 140 | 1.7 | 6.1 | 0.00 | 0.01 | 0.01 | 67 | 1010.3 |
| 20260506190054 | 86 | 126 | 0.9 | 4.3 | 0.00 | 0.01 | 0.01 | 67 | 1010.4 |
| 20260506185554 | 85 | 104 | 0.9 | 4.3 | 0.00 | 0.01 | 0.01 | 68 | 1010.5 |
| 20260506185052 | 85 | 78 | 1.7 | 5.2 | 0.00 | 0.01 | 0.01 | 68 | 1010.5 |
| 20260506184552 | 85 | 69 | 0.9 | 6.1 | 0.00 | 0.01 | 0.01 | 68 | 1010.6 |
| 20260506184052 | 85 | 166 | 1.7 | 6.1 | 0.00 | 0.01 | 0.01 | 70 | 1010.6 |
| 20260506183552 | 85 | 128 | 1.7 | 6.1 | 0.00 | 0.01 | 0.01 | 72 | 1010.7 |
| 20260506183052 | 84 | 88 | 0.9 | 6.1 | 0.00 | 0.01 | 0.01 | 71 | 1010.8 |
| 20260506182550 | 84 | 128 | 0.9 | 5.2 | 0.00 | 0.01 | 0.01 | 72 | 1010.9 |
| 20260506182050 | 83 | 111 | 1.7 | 7.0 | 0.00 | 0.01 | 0.01 | 73 | 1011.0 |
| 20260506181553 | 82 | 107 | 1.7 | 3.5 | 0.00 | 0.01 | 0.01 | 74 | 1011.1 |
| 20260506181549 | 83 | 39 | 0.9 | 7.0 | 0.00 | 0.01 | 0.01 | 73 | 1011.0 |
| 20260506181154 | 82 | 349 | 1.7 | 7.0 | 0.00 | 0.01 | 0.01 | 74 | 1011.1 |
| 20260506180052 | 81 | 68 | 1.7 | 5.2 | 0.00 | 0.01 | 0.01 | 77 | 1011.1 |
| 20260506180048 | 81 | 82 | 1.7 | 7.0 | 0.00 | 0.01 | 0.01 | 75 | 1011.2 |
| 20260506175652 | 81 | 76 | 0.9 | 4.3 | 0.00 | 0.01 | 0.01 | 76 | 1011.2 |
| 20260506174549 | 80 | 22 | 0.9 | 5.2 | 0.00 | 0.01 | 0.01 | 76 | 1011.2 |
| 20260506174545 | 80 | 355 | 0.9 | 5.2 | 0.00 | 0.01 | 0.01 | 77 | 1011.3 |
| 20260506173548 | 79 | 34 | 0.0 | 4.3 | 0.00 | 0.01 | 0.01 | 80 | 1011.3 |
| 20260506173544 | 80 | 45 | 0.9 | 4.3 | 0.00 | 0.01 | 0.01 | 78 | 1011.3 |
| 20260506172544 | 79 | 36 | 0.0 | 1.7 | 0.00 | 0.01 | 0.01 | 80 | 1011.3 |
| 20260506172044 | 79 | 36 | 0.0 | 0.0 | 0.00 | 0.01 | 0.01 | 80 | 1011.3 |
| 20260506171543 | 79 | 36 | 0.0 | 0.0 | 0.00 | 0.01 | 0.01 | 80 | 1011.3 |
| 20260506171042 | 78 | 36 | 0.0 | 0.0 | 0.00 | 0.01 | 0.01 | 81 | 1011.3 |
| 20260506170541 | 78 | 36 | 0.0 | 3.5 | 0.00 | 0.01 | 0.01 | 83 | 1011.3 |
| 20260506170040 | 78 | 36 | 0.9 | 3.5 | 0.00 | 0.01 | 0.01 | 82 | 1011.3 |
| 20260506165540 | 77 | 36 | 0.9 | 3.5 | 0.00 | 0.01 | 0.01 | 83 | 1011.4 |
| 20260506165043 | 77 | 37 | 0.9 | 3.5 | 0.00 | 0.01 | 0.01 | 84 | 1011.4 |
| 20260506165038 | 77 | 37 | 0.0 | 1.7 | 0.01 | 0.01 | 0.01 | 84 | 1011.4 |
| 20260506164037 | 77 | 36 | 0.0 | 1.7 | 0.01 | 0.01 | 0.01 | 85 | 1011.3 |
| 20260506163538 | 76 | 36 | 0.9 | 1.7 | 0.01 | 0.01 | 0.01 | 86 | 1011.3 |
| 20260506163036 | 76 | 36 | 0.9 | 3.5 | 0.01 | 0.01 | 0.01 | 86 | 1011.3 |
| 20260506162534 | 76 | 26 | 0.9 | 3.5 | 0.01 | 0.01 | 0.01 | 86 | 1011.3 |
| 20260506162034 | 75 | 54 | 0.9 | 3.5 | 0.01 | 0.01 | 0.01 | 87 | 1011.3 |
| 20260506161533 | 75 | 46 | 1.7 | 3.5 | 0.01 | 0.01 | 0.01 | 88 | 1011.3 |
| 20260506161034 | 75 | 64 | 1.7 | 3.5 | 0.01 | 0.01 | 0.01 | 88 | 1011.2 |
| 20260506160538 | 75 | 85 | 0.9 | 5.2 | 0.01 | 0.01 | 0.01 | 87 | 1011.0 |
| 20260506160534 | 75 | 51 | 1.7 | 5.2 | 0.01 | 0.01 | 0.01 | 88 | 1011.1 |
| 20260506155538 | 75 | 58 | 1.7 | 3.5 | 0.01 | 0.01 | 0.01 | 86 | 1011.1 |
| 20260506155534 | 75 | 59 | 0.9 | 3.5 | 0.01 | 0.01 | 0.01 | 87 | 1011.1 |
| 20260506154534 | 76 | 42 | 1.7 | 5.2 | 0.00 | 0.00 | 0.00 | 85 | 1011.0 |
| 20260506154031 | 76 | 69 | 0.9 | 5.2 | 0.00 | 0.00 | 0.00 | 84 | 1011.0 |
| 20260506153532 | 76 | 44 | 0.9 | 4.3 | 0.00 | 0.00 | 0.00 | 83 | 1010.9 |
| 20260506153032 | 77 | 50 | 0.9 | 3.5 | 0.00 | 0.00 | 0.00 | 83 | 1010.8 |
| 20260506152531 | 77 | 56 | 0.9 | 3.5 | 0.00 | 0.00 | 0.00 | 83 | 1010.8 |
| 20260506152032 | 77 | 54 | 0.9 | 1.7 | 0.00 | 0.00 | 0.00 | 83 | 1010.6 |
| 20260506151532 | 77 | 54 | 0.9 | 5.2 | 0.00 | 0.00 | 0.00 | 83 | 1010.6 |
| 20260506151032 | 77 | 65 | 0.9 | 5.2 | 0.00 | 0.00 | 0.00 | 82 | 1010.5 |
| 20260506150530 | 77 | 48 | 0.9 | 3.5 | 0.00 | 0.00 | 0.00 | 82 | 1010.5 |
| 20260506150028 | 77 | 27 | 0.9 | 3.5 | 0.00 | 0.00 | 0.00 | 83 | 1010.4 |
| 20260506145528 | 77 | 27 | 0.9 | 3.5 | 0.00 | 0.00 | 0.00 | 83 | 1010.4 |
| 20260506145029 | 76 | 119 | 0.9 | 1.7 | 0.00 | 0.00 | 0.00 | 83 | 1010.4 |
| 20260506144528 | 76 | 119 | 0.9 | 1.7 | 0.00 | 0.00 | 0.00 | 83 | 1010.4 |
| 20260506144027 | 76 | 126 | 0.0 | 0.9 | 0.00 | 0.00 | 0.00 | 83 | 1010.3 |
| 20260506143528 | 76 | 126 | 0.0 | 3.5 | 0.00 | 0.00 | 0.00 | 83 | 1010.3 |
| 20260506143028 | 76 | 126 | 0.0 | 3.5 | 0.00 | 0.00 | 0.00 | 84 | 1010.2 |
| 20260506142528 | 76 | 131 | 0.9 | 4.3 | 0.00 | 0.00 | 0.00 | 84 | 1010.1 |
| 20260506142032 | 76 | 121 | 0.9 | 4.3 | 0.00 | 0.00 | 0.00 | 84 | 1009.9 |
| 20260506142028 | 76 | 110 | 0.9 | 4.3 | 0.00 | 0.00 | 0.00 | 84 | 1009.9 |
| 20260506141028 | 76 | 261 | 0.0 | 0.9 | 0.00 | 0.00 | 0.00 | 85 | 1010.0 |
| 20260506140526 | 76 | 261 | 0.9 | 3.5 | 0.00 | 0.00 | 0.00 | 85 | 1009.9 |
| 20260506140026 | 76 | 126 | 0.9 | 3.5 | 0.00 | 0.00 | 0.00 | 85 | 1009.7 |
| 20260506135526 | 76 | 131 | 0.0 | 3.5 | 0.00 | 0.00 | 0.00 | 85 | 1009.6 |
| 20260506135025 | 75 | 132 | 0.0 | 3.5 | 0.00 | 0.00 | 0.00 | 86 | 1009.5 |
| 20260506134526 | 75 | 142 | 0.9 | 4.3 | 0.00 | 0.00 | 0.00 | 86 | 1009.4 |
| 20260506134025 | 75 | 114 | 0.9 | 4.3 | 0.00 | 0.00 | 0.00 | 86 | 1009.2 |
| 20260506133526 | 75 | 119 | 0.9 | 4.3 | 0.00 | 0.00 | 0.00 | 86 | 1009.2 |
| 20260506133026 | 75 | 121 | 0.9 | 4.3 | 0.00 | 0.00 | 0.00 | 86 | 1009.1 |
| 20260506132524 | 75 | 116 | 0.9 | 4.3 | 0.00 | 0.00 | 0.00 | 86 | 1009.1 |
| 20260506132028 | 75 | 108 | 0.9 | 3.5 | 0.00 | 0.00 | 0.00 | 86 | 1009.1 |
| 20260506132024 | 75 | 113 | 0.9 | 3.5 | 0.00 | 0.00 | 0.00 | 86 | 1009.2 |
| 20260506131024 | 75 | 105 | 0.9 | 6.1 | 0.00 | 0.00 | 0.00 | 87 | 1009.0 |
| 20260506130524 | 75 | 158 | 1.7 | 6.1 | 0.00 | 0.00 | 0.00 | 87 | 1008.9 |
| 20260506130024 | 75 | 127 | 1.7 | 6.1 | 0.00 | 0.00 | 0.00 | 87 | 1008.8 |
| 20260506125524 | 75 | 134 | 1.7 | 6.1 | 0.00 | 0.00 | 0.00 | 87 | 1008.8 |
| 20260506125024 | 74 | 111 | 1.7 | 5.2 | 0.00 | 0.00 | 0.00 | 87 | 1008.8 |
| 20260506124524 | 74 | 117 | 0.9 | 4.3 | 0.00 | 0.00 | 0.00 | 88 | 1008.9 |
| 20260506124024 | 74 | 127 | 0.9 | 5.2 | 0.00 | 0.00 | 0.00 | 88 | 1008.8 |
| 20260506123528 | 74 | 118 | 0.9 | 4.3 | 0.00 | 0.00 | 0.00 | 88 | 1008.9 |
| 20260506123524 | 74 | 120 | 0.9 | 5.2 | 0.00 | 0.00 | 0.00 | 88 | 1008.8 |
| 20260506122523 | 74 | 119 | 0.9 | 3.5 | 0.00 | 0.00 | 0.00 | 88 | 1008.8 |
| 20260506122023 | 74 | 134 | 0.9 | 3.5 | 0.00 | 0.00 | 0.00 | 88 | 1008.8 |
| 20260506121521 | 74 | 157 | 0.0 | 1.7 | 0.00 | 0.00 | 0.00 | 88 | 1008.9 |
| 20260506121019 | 74 | 118 | 0.9 | 4.3 | 0.00 | 0.00 | 0.00 | 88 | 1008.9 |
| 20260506120519 | 74 | 123 | 0.9 | 4.3 | 0.00 | 0.00 | 0.00 | 88 | 1008.9 |
| 20260506120019 | 74 | 125 | 0.9 | 4.3 | 0.00 | 0.00 | 0.00 | 88 | 1008.8 |
| 20260506115520 | 74 | 131 | 0.9 | 4.3 | 0.00 | 0.00 | 0.00 | 88 | 1008.8 |
| 20260506115017 | 74 | 118 | 0.9 | 4.3 | 0.00 | 0.00 | 0.00 | 88 | 1008.8 |
| 20260506114517 | 74 | 130 | 0.0 | 4.3 | 0.00 | 0.00 | 0.00 | 88 | 1008.8 |
| 20260506114018 | 74 | 108 | 0.0 | 1.7 | 0.00 | 0.00 | 0.00 | 88 | 1008.8 |
| 20260506113515 | 74 | 108 | 0.0 | 1.7 | 0.00 | 0.00 | 0.00 | 88 | 1008.8 |
| 20260506113017 | 74 | 108 | 0.0 | 1.7 | 0.00 | 0.00 | 0.00 | 87 | 1008.8 |
| 20260506112516 | 74 | 108 | 0.0 | 0.9 | 0.00 | 0.00 | 0.00 | 87 | 1008.8 |
| 20260506112015 | 74 | 108 | 0.0 | 0.9 | 0.00 | 0.00 | 0.00 | 87 | 1008.8 |
| 20260506111513 | 74 | 108 | 0.0 | 3.5 | 0.00 | 0.00 | 0.00 | 87 | 1008.8 |
| 20260506111012 | 74 | 108 | 0.0 | 3.5 | 0.00 | 0.00 | 0.00 | 87 | 1008.8 |
| 20260506110511 | 74 | 122 | 0.0 | 1.7 | 0.00 | 0.00 | 0.00 | 87 | 1008.8 |
| 20260506110009 | 74 | 123 | 0.0 | 0.9 | 0.00 | 0.00 | 0.00 | 87 | 1008.8 |
| 20260506105507 | 74 | 123 | 0.0 | 0.9 | 0.00 | 0.00 | 0.00 | 87 | 1008.8 |
| 20260506105008 | 74 | 123 | 0.0 | 0.9 | 0.00 | 0.00 | 0.00 | 87 | 1008.8 |
| 20260506104508 | 74 | 123 | 0.0 | 4.3 | 0.00 | 0.00 | 0.00 | 87 | 1008.7 |
| 20260506104004 | 75 | 123 | 0.0 | 4.3 | 0.00 | 0.00 | 0.00 | 87 | 1008.6 |
| 20260506103503 | 75 | 133 | 0.9 | 4.3 | 0.00 | 0.00 | 0.00 | 87 | 1008.4 |
| 20260506103006 | 75 | 134 | 0.9 | 4.3 | 0.00 | 0.00 | 0.00 | 87 | 1008.4 |
| 20260506103002 | 75 | 134 | 0.0 | 4.3 | 0.00 | 0.00 | 0.00 | 87 | 1008.4 |
| 20260506102002 | 75 | 126 | 0.9 | 4.3 | 0.00 | 0.00 | 0.00 | 87 | 1008.6 |
| 20260506101459 | 75 | 125 | 0.9 | 3.5 | 0.00 | 0.00 | 0.00 | 87 | 1008.6 |
| 20260506101000 | 75 | 126 | 0.9 | 6.1 | 0.00 | 0.00 | 0.00 | 87 | 1008.4 |
| 20260506100459 | 75 | 154 | 0.9 | 6.1 | 0.00 | 0.00 | 0.00 | 87 | 1008.4 |
| 20260506100455 | 75 | 159 | 0.9 | 4.3 | 0.00 | 0.00 | 0.00 | 87 | 1008.4 |
| 20260506095454 | 75 | 170 | 0.9 | 4.3 | 0.00 | 0.00 | 0.00 | 87 | 1008.4 |
| 20260506094955 | 75 | 192 | 0.9 | 5.2 | 0.00 | 0.00 | 0.00 | 87 | 1008.4 |
| 20260506094951 | 74 | 190 | 0.9 | 5.2 | 0.00 | 0.00 | 0.00 | 87 | 1008.4 |
| 20260506093949 | 74 | 126 | 1.7 | 5.2 | 0.00 | 0.00 | 0.00 | 87 | 1008.4 |
| 20260506093452 | 74 | 163 | 1.7 | 5.2 | 0.00 | 0.00 | 0.00 | 87 | 1008.4 |
| 20260506093448 | 74 | 155 | 1.7 | 5.2 | 0.00 | 0.00 | 0.00 | 87 | 1008.4 |
| 20260506093051 | 74 | 123 | 0.9 | 5.2 | 0.00 | 0.00 | 0.00 | 87 | 1008.4 |
| 20260506091945 | 74 | 132 | 0.9 | 4.3 | 0.00 | 0.00 | 0.00 | 87 | 1008.4 |
| 20260506091444 | 74 | 155 | 0.9 | 4.3 | 0.00 | 0.00 | 0.00 | 87 | 1008.4 |
| 20260506090941 | 74 | 133 | 0.9 | 3.5 | 0.00 | 0.00 | 0.00 | 87 | 1008.4 |
| 20260506090441 | 74 | 113 | 0.9 | 3.5 | 0.00 | 0.00 | 0.00 | 87 | 1008.6 |
| 20260506085940 | 75 | 163 | 0.9 | 4.3 | 0.00 | 0.00 | 0.00 | 87 | 1008.6 |
| 20260506085439 | 75 | 115 | 0.9 | 4.3 | 0.00 | 0.00 | 0.00 | 87 | 1008.4 |
| 20260506084940 | 75 | 110 | 1.7 | 6.1 | 0.00 | 0.00 | 0.00 | 86 | 1008.6 |
| 20260506084443 | 75 | 131 | 1.7 | 5.2 | 0.00 | 0.00 | 0.00 | 86 | 1008.7 |
| 20260506084439 | 75 | 163 | 1.7 | 6.1 | 0.00 | 0.00 | 0.00 | 86 | 1008.6 |
| 20260506083436 | 75 | 127 | 1.7 | 7.0 | 0.00 | 0.00 | 0.00 | 86 | 1008.7 |
| 20260506082931 | 75 | 140 | 2.6 | 7.0 | 0.00 | 0.00 | 0.00 | 86 | 1008.7 |
| 20260506082436 | 75 | 126 | 1.7 | 7.0 | 0.00 | 0.00 | 0.00 | 85 | 1008.7 |
| 20260506082432 | 75 | 121 | 1.7 | 6.1 | 0.00 | 0.00 | 0.00 | 86 | 1008.6 |
| 20260506081427 | 75 | 22 | 1.7 | 7.0 | 0.00 | 0.00 | 0.00 | 85 | 1008.7 |
| 20260506080928 | 75 | 89 | 1.7 | 5.2 | 0.00 | 0.00 | 0.00 | 85 | 1008.7 |
| 20260506080427 | 75 | 200 | 0.9 | 4.3 | 0.00 | 0.00 | 0.00 | 85 | 1008.7 |
| 20260506073418 | 75 | 134 | 1.7 | 7.0 | 0.00 | 0.00 | 0.00 | 85 | 1008.8 |
| 20260506072917 | 75 | 109 | 1.7 | 7.0 | 0.00 | 0.00 | 0.00 | 85 | 1008.9 |
| 20260506072415 | 75 | 126 | 1.7 | 7.8 | 0.00 | 0.00 | 0.00 | 85 | 1008.9 |
| 20260506071918 | 76 | 125 | 2.6 | 7.0 | 0.00 | 0.00 | 0.00 | 85 | 1008.9 |
| 20260506071914 | 75 | 114 | 2.6 | 7.8 | 0.00 | 0.00 | 0.00 | 85 | 1008.9 |
| 20260506070914 | 76 | 133 | 2.6 | 6.1 | 0.00 | 0.00 | 0.00 | 85 | 1009.0 |
| 20260506070413 | 76 | 184 | 2.6 | 8.7 | 0.00 | 0.00 | 0.00 | 85 | 1009.1 |
| 20260506062413 | 76 | 123 | 1.7 | 6.1 | 0.00 | 0.00 | 0.00 | 85 | 1009.0 |
| 20260506061914 | 76 | 106 | 1.7 | 7.0 | 0.00 | 0.00 | 0.00 | 85 | 1008.9 |
| 20260506061414 | 76 | 90 | 2.6 | 7.0 | 0.00 | 0.00 | 0.00 | 85 | 1009.0 |
| 20260506060913 | 76 | 122 | 3.5 | 7.8 | 0.00 | 0.00 | 0.00 | 85 | 1008.9 |
| 20260506060414 | 76 | 138 | 2.6 | 7.8 | 0.00 | 0.00 | 0.00 | 85 | 1008.9 |
| 20260506051414 | 76 | 59 | 1.7 | 6.1 | 0.00 | 0.00 | 0.00 | 85 | 1008.8 |
| 20260506050917 | 76 | 122 | 1.7 | 6.1 | 0.00 | 0.00 | 0.00 | 84 | 1008.9 |
| 20260506050913 | 76 | 76 | 1.7 | 6.1 | 0.00 | 0.00 | 0.00 | 84 | 1008.9 |
| 20260506044914 | 76 | 107 | 2.6 | 7.0 | 0.00 | 0.00 | 0.00 | 83 | 1008.7 |
| 20260506044417 | 77 | 128 | 2.6 | 9.6 | 0.00 | 0.00 | 0.00 | 83 | 1008.7 |
| 20260506044413 | 77 | 136 | 2.6 | 7.0 | 0.00 | 0.00 | 0.00 | 83 | 1008.7 |
| 20260506043414 | 77 | 147 | 2.6 | 9.6 | 0.00 | 0.00 | 0.00 | 83 | 1008.7 |
| 20260506042911 | 77 | 148 | 2.6 | 6.1 | 0.00 | 0.00 | 0.00 | 83 | 1008.7 |
| 20260506042412 | 77 | 118 | 2.6 | 7.8 | 0.00 | 0.00 | 0.00 | 82 | 1008.7 |
| 20260506041910 | 77 | 123 | 2.6 | 7.8 | 0.00 | 0.00 | 0.00 | 82 | 1008.7 |
| 20260506041413 | 78 | 150 | 2.6 | 7.0 | 0.00 | 0.00 | 0.00 | 81 | 1008.3 |
| 20260506041409 | 78 | 114 | 3.5 | 9.6 | 0.00 | 0.00 | 0.00 | 82 | 1008.4 |
| 20260506041013 | 78 | 31 | 2.6 | 9.6 | 0.00 | 0.00 | 0.00 | 81 | 1008.3 |
| 20260506035906 | 78 | 136 | 3.5 | 9.6 | 0.00 | 0.00 | 0.00 | 81 | 1008.2 |
| 20260506035406 | 78 | 121 | 3.5 | 9.6 | 0.00 | 0.00 | 0.00 | 81 | 1008.2 |
| 20260506034905 | 78 | 147 | 3.5 | 8.7 | 0.00 | 0.00 | 0.00 | 80 | 1008.3 |
| 20260506034406 | 78 | 117 | 3.5 | 9.6 | 0.00 | 0.00 | 0.00 | 80 | 1008.2 |
| 20260506033904 | 79 | 108 | 2.6 | 9.6 | 0.00 | 0.00 | 0.00 | 80 | 1008.1 |
| 20260506033404 | 79 | 121 | 2.6 | 7.0 | 0.00 | 0.00 | 0.00 | 80 | 1008.0 |
| 20260506032906 | 79 | 134 | 3.5 | 8.7 | 0.00 | 0.00 | 0.00 | 79 | 1008.0 |
| 20260506032902 | 79 | 131 | 2.6 | 8.7 | 0.00 | 0.00 | 0.00 | 79 | 1007.9 |
| 20260506031901 | 80 | 123 | 1.7 | 8.7 | 0.00 | 0.00 | 0.00 | 79 | 1007.9 |
| 20260506031400 | 80 | 128 | 1.7 | 6.1 | 0.00 | 0.00 | 0.00 | 78 | 1007.9 |
| 20260506030900 | 80 | 112 | 1.7 | 6.1 | 0.00 | 0.00 | 0.00 | 78 | 1007.9 |
| 20260506030404 | 80 | 107 | 1.7 | 8.7 | 0.00 | 0.00 | 0.00 | 77 | 1007.8 |
| 20260506030400 | 80 | 119 | 1.7 | 6.1 | 0.00 | 0.00 | 0.00 | 78 | 1007.9 |
| 20260506030002 | 80 | 134 | 2.6 | 8.7 | 0.00 | 0.00 | 0.00 | 78 | 1007.8 |
| 20260506024858 | 81 | 134 | 0.9 | 5.2 | 0.00 | 0.00 | 0.00 | 77 | 1007.7 |
| 20260506024358 | 81 | 129 | 1.7 | 5.2 | 0.00 | 0.00 | 0.00 | 77 | 1007.5 |
| 20260506023857 | 81 | 118 | 2.6 | 6.1 | 0.00 | 0.00 | 0.00 | 76 | 1007.4 |
| 20260506023358 | 82 | 103 | 1.7 | 6.1 | 0.00 | 0.00 | 0.00 | 76 | 1007.4 |
| 20260506022858 | 82 | 127 | 1.7 | 5.2 | 0.00 | 0.00 | 0.00 | 75 | 1007.2 |
| 20260506022357 | 82 | 116 | 1.7 | 5.2 | 0.00 | 0.00 | 0.00 | 74 | 1007.2 |
| 20260506021858 | 83 | 123 | 1.7 | 6.1 | 0.00 | 0.00 | 0.00 | 74 | 1007.2 |
| 20260506021358 | 83 | 109 | 1.7 | 7.8 | 0.00 | 0.00 | 0.00 | 73 | 1007.1 |
| 20260506020901 | 83 | 103 | 1.7 | 7.0 | 0.00 | 0.00 | 0.00 | 71 | 1007.1 |
| 20260506020857 | 83 | 109 | 1.7 | 7.8 | 0.00 | 0.00 | 0.00 | 72 | 1007.1 |
| 20260506015901 | 84 | 110 | 2.6 | 7.8 | 0.00 | 0.00 | 0.00 | 70 | 1006.9 |
| 20260506015857 | 84 | 87 | 2.6 | 6.1 | 0.00 | 0.00 | 0.00 | 71 | 1007.1 |
| 20260506014855 | 84 | 112 | 1.7 | 7.8 | 0.00 | 0.00 | 0.00 | 70 | 1006.7 |
| 20260506014400 | 84 | 134 | 1.7 | 7.0 | 0.00 | 0.00 | 0.00 | 70 | 1006.6 |
| 20260506014356 | 84 | 84 | 1.7 | 7.0 | 0.00 | 0.00 | 0.00 | 70 | 1006.6 |
| 20260506013400 | 84 | 113 | 1.7 | 6.1 | 0.00 | 0.00 | 0.00 | 69 | 1006.3 |
| 20260506013356 | 84 | 119 | 0.9 | 6.1 | 0.00 | 0.00 | 0.00 | 69 | 1006.4 |